sensor_id;sensor_type;location;lat;lon;timestamp;P1;durP1;ratioP1;P2;durP2;ratioP2
5295;SDS011;2670;42.720;23.336;2023-07-24T00:00:43;11.73;;;7.63;;
5295;SDS011;2670;42.720;23.336;2023-07-24T00:03:09;13.30;;;7.20;;
5295;SDS011;2670;42.720;23.336;2023-07-24T00:05:36;14.20;;;7.67;;
5295;SDS011;2670;42.720;23.336;2023-07-24T00:08:04;13.20;;;7.90;;
5295;SDS011;2670;42.720;23.336;2023-07-24T00:10:32;11.20;;;7.50;;
5295;SDS011;2670;42.720;23.336;2023-07-24T00:12:58;11.27;;;7.53;;
5295;SDS011;2670;42.720;23.336;2023-07-24T00:15:26;12.83;;;8.30;;
5295;SDS011;2670;42.720;23.336;2023-07-24T00:17:52;11.60;;;7.57;;
5295;SDS011;2670;42.720;23.336;2023-07-24T00:20:19;15.73;;;8.67;;
5295;SDS011;2670;42.720;23.336;2023-07-24T00:22:46;12.40;;;7.70;;
5295;SDS011;2670;42.720;23.336;2023-07-24T00:25:14;12.57;;;8.17;;
5295;SDS011;2670;42.720;23.336;2023-07-24T00:27:41;15.40;;;8.40;;
5295;SDS011;2670;42.720;23.336;2023-07-24T00:30:08;17.90;;;9.40;;
5295;SDS011;2670;42.720;23.336;2023-07-24T00:32:36;13.83;;;8.53;;
5295;SDS011;2670;42.720;23.336;2023-07-24T00:35:02;15.20;;;8.00;;
5295;SDS011;2670;42.720;23.336;2023-07-24T00:37:29;13.13;;;7.33;;
5295;SDS011;2670;42.720;23.336;2023-07-24T00:39:56;10.03;;;6.70;;
5295;SDS011;2670;42.720;23.336;2023-07-24T00:42:24;14.97;;;8.43;;
5295;SDS011;2670;42.720;23.336;2023-07-24T00:44:51;15.77;;;7.60;;
5295;SDS011;2670;42.720;23.336;2023-07-24T00:47:17;11.77;;;7.77;;
5295;SDS011;2670;42.720;23.336;2023-07-24T00:49:44;13.53;;;7.53;;
5295;SDS011;2670;42.720;23.336;2023-07-24T00:52:13;11.60;;;7.20;;
5295;SDS011;2670;42.720;23.336;2023-07-24T00:54:40;12.00;;;6.77;;
5295;SDS011;2670;42.720;23.336;2023-07-24T00:57:09;11.53;;;7.13;;
5295;SDS011;2670;42.720;23.336;2023-07-24T00:59:37;13.13;;;6.63;;
5295;SDS011;2670;42.720;23.336;2023-07-24T01:02:04;11.50;;;7.47;;
5295;SDS011;2670;42.720;23.336;2023-07-24T01:04:31;11.53;;;7.30;;
5295;SDS011;2670;42.720;23.336;2023-07-24T01:06:58;11.50;;;6.70;;
5295;SDS011;2670;42.720;23.336;2023-07-24T01:09:25;11.87;;;7.00;;
5295;SDS011;2670;42.720;23.336;2023-07-24T01:11:54;12.60;;;6.90;;
5295;SDS011;2670;42.720;23.336;2023-07-24T01:14:27;14.20;;;8.23;;
5295;SDS011;2670;42.720;23.336;2023-07-24T01:17:00;10.30;;;6.80;;
5295;SDS011;2670;42.720;23.336;2023-07-24T01:19:34;10.13;;;6.60;;
5295;SDS011;2670;42.720;23.336;2023-07-24T01:22:08;11.97;;;6.60;;
5295;SDS011;2670;42.720;23.336;2023-07-24T01:24:46;11.33;;;6.70;;
5295;SDS011;2670;42.720;23.336;2023-07-24T01:27:23;11.37;;;7.23;;
5295;SDS011;2670;42.720;23.336;2023-07-24T01:29:51;12.03;;;7.23;;
5295;SDS011;2670;42.720;23.336;2023-07-24T01:32:18;10.30;;;6.27;;
5295;SDS011;2670;42.720;23.336;2023-07-24T01:34:45;11.23;;;6.90;;
5295;SDS011;2670;42.720;23.336;2023-07-24T01:37:12;9.33;;;6.80;;
5295;SDS011;2670;42.720;23.336;2023-07-24T01:39:40;14.70;;;7.03;;
5295;SDS011;2670;42.720;23.336;2023-07-24T01:42:08;9.93;;;7.60;;
5295;SDS011;2670;42.720;23.336;2023-07-24T01:44:36;9.90;;;6.60;;
5295;SDS011;2670;42.720;23.336;2023-07-24T01:47:03;15.17;;;6.30;;
5295;SDS011;2670;42.720;23.336;2023-07-24T01:49:30;12.60;;;7.03;;
5295;SDS011;2670;42.720;23.336;2023-07-24T01:51:57;10.67;;;7.20;;
5295;SDS011;2670;42.720;23.336;2023-07-24T01:54:23;15.00;;;6.80;;
5295;SDS011;2670;42.720;23.336;2023-07-24T01:56:50;11.27;;;7.40;;
5295;SDS011;2670;42.720;23.336;2023-07-24T01:59:18;12.90;;;7.23;;
5295;SDS011;2670;42.720;23.336;2023-07-24T02:01:46;11.23;;;7.00;;
5295;SDS011;2670;42.720;23.336;2023-07-24T02:04:13;10.30;;;6.73;;
5295;SDS011;2670;42.720;23.336;2023-07-24T02:06:39;10.77;;;7.00;;
5295;SDS011;2670;42.720;23.336;2023-07-24T02:09:06;10.97;;;7.23;;
5295;SDS011;2670;42.720;23.336;2023-07-24T02:11:33;12.73;;;7.00;;
5295;SDS011;2670;42.720;23.336;2023-07-24T02:14:00;9.97;;;7.33;;
5295;SDS011;2670;42.720;23.336;2023-07-24T02:16:26;9.67;;;6.30;;
5295;SDS011;2670;42.720;23.336;2023-07-24T02:18:54;12.53;;;6.60;;
5295;SDS011;2670;42.720;23.336;2023-07-24T02:21:21;14.67;;;7.47;;
5295;SDS011;2670;42.720;23.336;2023-07-24T02:23:48;12.33;;;7.67;;
5295;SDS011;2670;42.720;23.336;2023-07-24T02:26:14;10.60;;;7.57;;
5295;SDS011;2670;42.720;23.336;2023-07-24T02:28:41;12.43;;;6.67;;
5295;SDS011;2670;42.720;23.336;2023-07-24T02:31:08;11.70;;;6.80;;
5295;SDS011;2670;42.720;23.336;2023-07-24T02:33:34;11.47;;;7.13;;
5295;SDS011;2670;42.720;23.336;2023-07-24T02:36:02;9.60;;;6.50;;
5295;SDS011;2670;42.720;23.336;2023-07-24T02:38:29;11.63;;;7.27;;
5295;SDS011;2670;42.720;23.336;2023-07-24T02:40:56;11.57;;;7.50;;
5295;SDS011;2670;42.720;23.336;2023-07-24T02:43:23;12.90;;;7.40;;
5295;SDS011;2670;42.720;23.336;2023-07-24T02:45:50;11.67;;;7.60;;
5295;SDS011;2670;42.720;23.336;2023-07-24T02:48:17;11.00;;;7.07;;
5295;SDS011;2670;42.720;23.336;2023-07-24T02:50:44;11.40;;;7.13;;
5295;SDS011;2670;42.720;23.336;2023-07-24T02:53:12;11.00;;;7.20;;
5295;SDS011;2670;42.720;23.336;2023-07-24T02:55:41;11.00;;;7.23;;
5295;SDS011;2670;42.720;23.336;2023-07-24T02:58:08;12.90;;;7.03;;
5295;SDS011;2670;42.720;23.336;2023-07-24T03:00:35;12.00;;;7.30;;
5295;SDS011;2670;42.720;23.336;2023-07-24T03:03:04;10.20;;;7.07;;
5295;SDS011;2670;42.720;23.336;2023-07-24T03:05:31;14.20;;;7.60;;
5295;SDS011;2670;42.720;23.336;2023-07-24T03:08:00;10.77;;;6.67;;
5295;SDS011;2670;42.720;23.336;2023-07-24T03:10:28;10.80;;;6.67;;
5295;SDS011;2670;42.720;23.336;2023-07-24T03:12:55;14.00;;;7.10;;
5295;SDS011;2670;42.720;23.336;2023-07-24T03:15:22;11.53;;;7.63;;
5295;SDS011;2670;42.720;23.336;2023-07-24T03:17:49;13.20;;;7.53;;
5295;SDS011;2670;42.720;23.336;2023-07-24T03:20:16;13.73;;;7.50;;
5295;SDS011;2670;42.720;23.336;2023-07-24T03:22:44;13.20;;;7.60;;
5295;SDS011;2670;42.720;23.336;2023-07-24T03:25:11;11.87;;;8.27;;
5295;SDS011;2670;42.720;23.336;2023-07-24T03:27:39;12.27;;;7.70;;
5295;SDS011;2670;42.720;23.336;2023-07-24T03:30:06;13.50;;;8.30;;
5295;SDS011;2670;42.720;23.336;2023-07-24T03:32:34;12.87;;;7.23;;
5295;SDS011;2670;42.720;23.336;2023-07-24T03:35:02;14.07;;;8.13;;
5295;SDS011;2670;42.720;23.336;2023-07-24T03:37:29;11.90;;;7.80;;
5295;SDS011;2670;42.720;23.336;2023-07-24T03:39:55;11.37;;;7.93;;
5295;SDS011;2670;42.720;23.336;2023-07-24T03:42:25;10.37;;;7.90;;
5295;SDS011;2670;42.720;23.336;2023-07-24T03:44:54;12.20;;;7.37;;
5295;SDS011;2670;42.720;23.336;2023-07-24T03:47:21;13.80;;;8.27;;
5295;SDS011;2670;42.720;23.336;2023-07-24T03:49:48;12.77;;;7.80;;
5295;SDS011;2670;42.720;23.336;2023-07-24T03:52:15;12.20;;;8.43;;
5295;SDS011;2670;42.720;23.336;2023-07-24T03:54:42;10.67;;;7.90;;
5295;SDS011;2670;42.720;23.336;2023-07-24T03:57:09;19.07;;;8.43;;
5295;SDS011;2670;42.720;23.336;2023-07-24T03:59:36;17.57;;;9.17;;
5295;SDS011;2670;42.720;23.336;2023-07-24T04:02:04;14.47;;;7.73;;
5295;SDS011;2670;42.720;23.336;2023-07-24T04:04:31;11.30;;;7.90;;
5295;SDS011;2670;42.720;23.336;2023-07-24T04:06:59;16.73;;;8.03;;
5295;SDS011;2670;42.720;23.336;2023-07-24T04:09:25;12.70;;;8.40;;
5295;SDS011;2670;42.720;23.336;2023-07-24T04:11:52;16.03;;;8.17;;
5295;SDS011;2670;42.720;23.336;2023-07-24T04:14:19;12.60;;;8.53;;
5295;SDS011;2670;42.720;23.336;2023-07-24T04:16:46;13.80;;;9.17;;
5295;SDS011;2670;42.720;23.336;2023-07-24T04:19:14;13.10;;;9.27;;
5295;SDS011;2670;42.720;23.336;2023-07-24T04:21:40;14.87;;;9.00;;
5295;SDS011;2670;42.720;23.336;2023-07-24T04:24:08;10.47;;;8.00;;
5295;SDS011;2670;42.720;23.336;2023-07-24T04:26:35;18.17;;;8.70;;
5295;SDS011;2670;42.720;23.336;2023-07-24T04:29:01;13.00;;;8.60;;
5295;SDS011;2670;42.720;23.336;2023-07-24T04:31:30;13.07;;;9.00;;
5295;SDS011;2670;42.720;23.336;2023-07-24T04:34:09;17.53;;;8.90;;
5295;SDS011;2670;42.720;23.336;2023-07-24T04:36:38;18.90;;;8.50;;
5295;SDS011;2670;42.720;23.336;2023-07-24T04:39:05;13.63;;;8.60;;
5295;SDS011;2670;42.720;23.336;2023-07-24T04:41:31;20.77;;;8.43;;
5295;SDS011;2670;42.720;23.336;2023-07-24T04:43:58;14.27;;;8.10;;
5295;SDS011;2670;42.720;23.336;2023-07-24T04:46:25;16.50;;;7.73;;
5295;SDS011;2670;42.720;23.336;2023-07-24T04:48:51;16.27;;;8.10;;
5295;SDS011;2670;42.720;23.336;2023-07-24T04:51:18;14.30;;;8.30;;
5295;SDS011;2670;42.720;23.336;2023-07-24T04:53:46;16.90;;;8.33;;
5295;SDS011;2670;42.720;23.336;2023-07-24T04:56:13;16.87;;;9.23;;
5295;SDS011;2670;42.720;23.336;2023-07-24T04:58:39;13.43;;;8.10;;
5295;SDS011;2670;42.720;23.336;2023-07-24T05:01:06;16.30;;;8.47;;
5295;SDS011;2670;42.720;23.336;2023-07-24T05:03:34;19.43;;;9.97;;
5295;SDS011;2670;42.720;23.336;2023-07-24T05:06:01;18.87;;;9.13;;
5295;SDS011;2670;42.720;23.336;2023-07-24T05:08:27;18.90;;;9.80;;
5295;SDS011;2670;42.720;23.336;2023-07-24T05:10:55;14.37;;;9.50;;
5295;SDS011;2670;42.720;23.336;2023-07-24T05:13:22;14.93;;;8.53;;
5295;SDS011;2670;42.720;23.336;2023-07-24T05:15:49;21.93;;;7.97;;
5295;SDS011;2670;42.720;23.336;2023-07-24T05:18:16;13.37;;;8.33;;
5295;SDS011;2670;42.720;23.336;2023-07-24T05:20:43;18.03;;;9.67;;
5295;SDS011;2670;42.720;23.336;2023-07-24T05:23:11;13.37;;;8.47;;
5295;SDS011;2670;42.720;23.336;2023-07-24T05:25:38;22.57;;;8.03;;
5295;SDS011;2670;42.720;23.336;2023-07-24T05:28:06;18.80;;;8.70;;
5295;SDS011;2670;42.720;23.336;2023-07-24T05:30:33;18.83;;;8.73;;
5295;SDS011;2670;42.720;23.336;2023-07-24T05:33:00;16.03;;;8.00;;
5295;SDS011;2670;42.720;23.336;2023-07-24T05:35:26;15.67;;;9.03;;
5295;SDS011;2670;42.720;23.336;2023-07-24T05:37:53;16.20;;;9.03;;
5295;SDS011;2670;42.720;23.336;2023-07-24T05:40:20;15.53;;;9.47;;
5295;SDS011;2670;42.720;23.336;2023-07-24T05:42:46;12.30;;;8.03;;
5295;SDS011;2670;42.720;23.336;2023-07-24T05:45:15;14.20;;;8.47;;
5295;SDS011;2670;42.720;23.336;2023-07-24T05:47:41;20.27;;;8.27;;
5295;SDS011;2670;42.720;23.336;2023-07-24T05:50:08;19.63;;;8.67;;
5295;SDS011;2670;42.720;23.336;2023-07-24T05:52:38;19.67;;;9.67;;
5295;SDS011;2670;42.720;23.336;2023-07-24T05:55:05;17.30;;;9.00;;
5295;SDS011;2670;42.720;23.336;2023-07-24T05:57:32;13.60;;;8.57;;
5295;SDS011;2670;42.720;23.336;2023-07-24T05:59:59;21.20;;;8.73;;
5295;SDS011;2670;42.720;23.336;2023-07-24T06:02:27;17.80;;;9.00;;
5295;SDS011;2670;42.720;23.336;2023-07-24T06:04:54;16.17;;;9.20;;
5295;SDS011;2670;42.720;23.336;2023-07-24T06:07:20;12.60;;;8.20;;
5295;SDS011;2670;42.720;23.336;2023-07-24T06:09:47;17.40;;;9.10;;
5295;SDS011;2670;42.720;23.336;2023-07-24T06:12:14;11.63;;;7.43;;
5295;SDS011;2670;42.720;23.336;2023-07-24T06:14:41;19.70;;;9.17;;
5295;SDS011;2670;42.720;23.336;2023-07-24T06:17:07;13.10;;;8.10;;
5295;SDS011;2670;42.720;23.336;2023-07-24T06:19:36;14.73;;;7.83;;
5295;SDS011;2670;42.720;23.336;2023-07-24T06:22:02;14.80;;;8.30;;
5295;SDS011;2670;42.720;23.336;2023-07-24T06:24:29;16.97;;;8.53;;
5295;SDS011;2670;42.720;23.336;2023-07-24T06:26:56;14.40;;;7.30;;
5295;SDS011;2670;42.720;23.336;2023-07-24T06:29:23;15.20;;;8.33;;
5295;SDS011;2670;42.720;23.336;2023-07-24T06:31:50;12.83;;;8.20;;
5295;SDS011;2670;42.720;23.336;2023-07-24T06:34:17;16.90;;;8.20;;
5295;SDS011;2670;42.720;23.336;2023-07-24T06:36:45;14.30;;;8.43;;
5295;SDS011;2670;42.720;23.336;2023-07-24T06:39:12;14.10;;;8.50;;
5295;SDS011;2670;42.720;23.336;2023-07-24T06:41:39;14.10;;;8.23;;
5295;SDS011;2670;42.720;23.336;2023-07-24T06:44:05;22.27;;;8.50;;
5295;SDS011;2670;42.720;23.336;2023-07-24T06:46:32;14.93;;;8.47;;
5295;SDS011;2670;42.720;23.336;2023-07-24T06:48:59;11.47;;;7.93;;
5295;SDS011;2670;42.720;23.336;2023-07-24T06:51:25;16.87;;;9.30;;
5295;SDS011;2670;42.720;23.336;2023-07-24T06:53:54;13.40;;;8.90;;
5295;SDS011;2670;42.720;23.336;2023-07-24T06:56:20;14.10;;;9.03;;
5295;SDS011;2670;42.720;23.336;2023-07-24T06:58:47;18.90;;;9.33;;
5295;SDS011;2670;42.720;23.336;2023-07-24T07:01:14;17.30;;;8.60;;
5295;SDS011;2670;42.720;23.336;2023-07-24T07:03:40;12.20;;;8.67;;
5295;SDS011;2670;42.720;23.336;2023-07-24T07:06:07;13.70;;;8.90;;
5295;SDS011;2670;42.720;23.336;2023-07-24T07:08:37;19.07;;;11.00;;
5295;SDS011;2670;42.720;23.336;2023-07-24T07:11:06;14.07;;;8.40;;
5295;SDS011;2670;42.720;23.336;2023-07-24T07:13:32;18.73;;;8.90;;
5295;SDS011;2670;42.720;23.336;2023-07-24T07:15:59;16.80;;;9.43;;
5295;SDS011;2670;42.720;23.336;2023-07-24T07:18:26;14.43;;;8.70;;
5295;SDS011;2670;42.720;23.336;2023-07-24T07:20:53;17.97;;;8.57;;
5295;SDS011;2670;42.720;23.336;2023-07-24T07:23:20;15.73;;;8.43;;
5295;SDS011;2670;42.720;23.336;2023-07-24T07:25:47;14.20;;;7.90;;
5295;SDS011;2670;42.720;23.336;2023-07-24T07:28:16;11.60;;;7.80;;
5295;SDS011;2670;42.720;23.336;2023-07-24T07:30:44;13.97;;;8.63;;
5295;SDS011;2670;42.720;23.336;2023-07-24T07:33:11;13.43;;;8.07;;
5295;SDS011;2670;42.720;23.336;2023-07-24T07:35:37;13.03;;;7.70;;
5295;SDS011;2670;42.720;23.336;2023-07-24T07:38:04;12.97;;;7.20;;
5295;SDS011;2670;42.720;23.336;2023-07-24T07:40:31;19.10;;;8.97;;
5295;SDS011;2670;42.720;23.336;2023-07-24T07:42:57;12.20;;;8.60;;
5295;SDS011;2670;42.720;23.336;2023-07-24T07:45:25;12.30;;;8.30;;
5295;SDS011;2670;42.720;23.336;2023-07-24T07:47:52;14.50;;;8.30;;
5295;SDS011;2670;42.720;23.336;2023-07-24T07:50:19;16.70;;;8.03;;
5295;SDS011;2670;42.720;23.336;2023-07-24T07:52:48;14.73;;;9.60;;
5295;SDS011;2670;42.720;23.336;2023-07-24T07:55:15;19.43;;;9.30;;
5295;SDS011;2670;42.720;23.336;2023-07-24T07:57:42;18.33;;;9.27;;
5295;SDS011;2670;42.720;23.336;2023-07-24T08:00:09;12.93;;;8.50;;
5295;SDS011;2670;42.720;23.336;2023-07-24T08:02:38;12.93;;;8.90;;
5295;SDS011;2670;42.720;23.336;2023-07-24T08:05:06;15.67;;;9.30;;
5295;SDS011;2670;42.720;23.336;2023-07-24T08:07:33;13.10;;;8.70;;
5295;SDS011;2670;42.720;23.336;2023-07-24T08:10:00;11.40;;;7.70;;
5295;SDS011;2670;42.720;23.336;2023-07-24T08:12:27;13.93;;;9.07;;
5295;SDS011;2670;42.720;23.336;2023-07-24T08:14:53;15.30;;;8.80;;
5295;SDS011;2670;42.720;23.336;2023-07-24T08:17:20;15.10;;;8.73;;
5295;SDS011;2670;42.720;23.336;2023-07-24T08:19:48;13.60;;;7.77;;
5295;SDS011;2670;42.720;23.336;2023-07-24T08:22:15;13.50;;;8.63;;
5295;SDS011;2670;42.720;23.336;2023-07-24T08:24:41;15.60;;;9.13;;
5295;SDS011;2670;42.720;23.336;2023-07-24T08:27:09;17.10;;;9.03;;
5295;SDS011;2670;42.720;23.336;2023-07-24T08:29:36;14.80;;;9.43;;
5295;SDS011;2670;42.720;23.336;2023-07-24T08:32:03;13.00;;;8.30;;
5295;SDS011;2670;42.720;23.336;2023-07-24T08:34:30;12.77;;;7.83;;
5295;SDS011;2670;42.720;23.336;2023-07-24T08:36:59;13.70;;;8.67;;
5295;SDS011;2670;42.720;23.336;2023-07-24T08:39:25;13.40;;;9.03;;
5295;SDS011;2670;42.720;23.336;2023-07-24T08:41:52;15.33;;;10.10;;
5295;SDS011;2670;42.720;23.336;2023-07-24T08:44:19;17.27;;;9.67;;
5295;SDS011;2670;42.720;23.336;2023-07-24T08:46:46;16.97;;;9.70;;
5295;SDS011;2670;42.720;23.336;2023-07-24T08:49:15;18.20;;;9.97;;
5295;SDS011;2670;42.720;23.336;2023-07-24T08:51:42;13.20;;;8.40;;
5295;SDS011;2670;42.720;23.336;2023-07-24T08:54:11;19.30;;;9.37;;
5295;SDS011;2670;42.720;23.336;2023-07-24T08:56:39;14.43;;;8.57;;
5295;SDS011;2670;42.720;23.336;2023-07-24T08:59:06;16.17;;;9.50;;
5295;SDS011;2670;42.720;23.336;2023-07-24T09:01:33;13.17;;;9.47;;
5295;SDS011;2670;42.720;23.336;2023-07-24T09:04:00;16.50;;;9.40;;
5295;SDS011;2670;42.720;23.336;2023-07-24T09:06:26;13.00;;;8.77;;
5295;SDS011;2670;42.720;23.336;2023-07-24T09:08:54;21.47;;;9.40;;
5295;SDS011;2670;42.720;23.336;2023-07-24T09:11:22;15.40;;;9.63;;
5295;SDS011;2670;42.720;23.336;2023-07-24T09:13:49;17.60;;;9.00;;
5295;SDS011;2670;42.720;23.336;2023-07-24T09:16:22;17.00;;;8.80;;
5295;SDS011;2670;42.720;23.336;2023-07-24T09:18:49;16.10;;;9.40;;
5295;SDS011;2670;42.720;23.336;2023-07-24T09:21:26;18.03;;;9.30;;
5295;SDS011;2670;42.720;23.336;2023-07-24T09:23:54;19.50;;;9.40;;
5295;SDS011;2670;42.720;23.336;2023-07-24T09:26:22;17.20;;;9.07;;
5295;SDS011;2670;42.720;23.336;2023-07-24T09:28:51;19.13;;;9.20;;
5295;SDS011;2670;42.720;23.336;2023-07-24T09:31:19;21.93;;;8.63;;
5295;SDS011;2670;42.720;23.336;2023-07-24T09:33:46;14.80;;;9.67;;
5295;SDS011;2670;42.720;23.336;2023-07-24T09:36:12;21.53;;;9.20;;
5295;SDS011;2670;42.720;23.336;2023-07-24T09:38:40;17.60;;;9.60;;
5295;SDS011;2670;42.720;23.336;2023-07-24T09:41:07;21.90;;;9.17;;
5295;SDS011;2670;42.720;23.336;2023-07-24T09:43:35;14.73;;;8.97;;
5295;SDS011;2670;42.720;23.336;2023-07-24T09:46:02;23.40;;;9.53;;
5295;SDS011;2670;42.720;23.336;2023-07-24T09:48:31;15.47;;;9.37;;
5295;SDS011;2670;42.720;23.336;2023-07-24T09:50:58;16.73;;;9.33;;
5295;SDS011;2670;42.720;23.336;2023-07-24T09:53:29;18.47;;;10.00;;
5295;SDS011;2670;42.720;23.336;2023-07-24T09:56:01;18.70;;;9.07;;
5295;SDS011;2670;42.720;23.336;2023-07-24T09:58:29;17.97;;;9.70;;
5295;SDS011;2670;42.720;23.336;2023-07-24T10:00:59;24.80;;;9.50;;
5295;SDS011;2670;42.720;23.336;2023-07-24T10:03:28;16.93;;;9.30;;
5295;SDS011;2670;42.720;23.336;2023-07-24T10:05:55;13.87;;;8.13;;
5295;SDS011;2670;42.720;23.336;2023-07-24T10:08:22;19.33;;;9.40;;
5295;SDS011;2670;42.720;23.336;2023-07-24T10:10:49;15.80;;;9.20;;
5295;SDS011;2670;42.720;23.336;2023-07-24T10:13:18;17.57;;;8.80;;
5295;SDS011;2670;42.720;23.336;2023-07-24T10:15:47;15.63;;;9.13;;
5295;SDS011;2670;42.720;23.336;2023-07-24T10:18:16;25.30;;;8.80;;
5295;SDS011;2670;42.720;23.336;2023-07-24T10:20:43;14.97;;;8.60;;
5295;SDS011;2670;42.720;23.336;2023-07-24T10:23:11;18.57;;;9.50;;
5295;SDS011;2670;42.720;23.336;2023-07-24T10:25:44;17.47;;;9.57;;
5295;SDS011;2670;42.720;23.336;2023-07-24T10:28:11;20.17;;;9.00;;
5295;SDS011;2670;42.720;23.336;2023-07-24T10:30:41;22.00;;;8.13;;
5295;SDS011;2670;42.720;23.336;2023-07-24T10:33:09;13.77;;;8.83;;
5295;SDS011;2670;42.720;23.336;2023-07-24T10:35:38;17.63;;;8.90;;
5295;SDS011;2670;42.720;23.336;2023-07-24T10:38:06;15.00;;;8.90;;
5295;SDS011;2670;42.720;23.336;2023-07-24T10:40:33;23.33;;;9.40;;
5295;SDS011;2670;42.720;23.336;2023-07-24T10:43:00;14.83;;;9.07;;
5295;SDS011;2670;42.720;23.336;2023-07-24T10:48:16;14.60;;;8.27;;
5295;SDS011;2670;42.720;23.336;2023-07-24T10:50:46;14.70;;;9.00;;
5295;SDS011;2670;42.720;23.336;2023-07-24T10:53:14;22.93;;;9.30;;
5295;SDS011;2670;42.720;23.336;2023-07-24T10:55:42;15.27;;;8.30;;
5295;SDS011;2670;42.720;23.336;2023-07-24T10:58:09;11.73;;;8.23;;
5295;SDS011;2670;42.720;23.336;2023-07-24T11:00:38;14.60;;;7.90;;
5295;SDS011;2670;42.720;23.336;2023-07-24T11:03:05;16.50;;;8.40;;
5295;SDS011;2670;42.720;23.336;2023-07-24T11:05:35;16.20;;;9.53;;
5295;SDS011;2670;42.720;23.336;2023-07-24T11:08:09;17.73;;;8.57;;
5295;SDS011;2670;42.720;23.336;2023-07-24T11:10:43;12.63;;;7.97;;
5295;SDS011;2670;42.720;23.336;2023-07-24T11:13:11;14.60;;;7.30;;
5295;SDS011;2670;42.720;23.336;2023-07-24T11:15:38;18.57;;;8.77;;
5295;SDS011;2670;42.720;23.336;2023-07-24T11:18:04;12.83;;;8.30;;
5295;SDS011;2670;42.720;23.336;2023-07-24T11:20:33;14.80;;;7.90;;
5295;SDS011;2670;42.720;23.336;2023-07-24T11:23:03;13.10;;;7.90;;
5295;SDS011;2670;42.720;23.336;2023-07-24T11:25:32;12.03;;;6.97;;
5295;SDS011;2670;42.720;23.336;2023-07-24T11:27:59;14.60;;;7.90;;
5295;SDS011;2670;42.720;23.336;2023-07-24T11:30:27;14.60;;;6.93;;
5295;SDS011;2670;42.720;23.336;2023-07-24T11:32:54;13.40;;;8.20;;
5295;SDS011;2670;42.720;23.336;2023-07-24T11:35:24;13.73;;;7.97;;
5295;SDS011;2670;42.720;23.336;2023-07-24T11:37:51;16.27;;;7.33;;
5295;SDS011;2670;42.720;23.336;2023-07-24T11:40:18;18.07;;;8.40;;
5295;SDS011;2670;42.720;23.336;2023-07-24T11:42:47;11.10;;;7.23;;
5295;SDS011;2670;42.720;23.336;2023-07-24T11:45:15;20.03;;;7.77;;
5295;SDS011;2670;42.720;23.336;2023-07-24T11:47:42;11.63;;;7.40;;
5295;SDS011;2670;42.720;23.336;2023-07-24T11:50:13;16.03;;;7.50;;
5295;SDS011;2670;42.720;23.336;2023-07-24T11:52:41;12.53;;;7.80;;
5295;SDS011;2670;42.720;23.336;2023-07-24T11:55:09;18.63;;;8.07;;
5295;SDS011;2670;42.720;23.336;2023-07-24T11:57:37;15.53;;;7.40;;
5295;SDS011;2670;42.720;23.336;2023-07-24T12:00:16;13.47;;;7.27;;
5295;SDS011;2670;42.720;23.336;2023-07-24T12:02:44;14.17;;;8.10;;
5295;SDS011;2670;42.720;23.336;2023-07-24T12:05:11;11.40;;;7.20;;
5295;SDS011;2670;42.720;23.336;2023-07-24T12:07:38;12.50;;;7.37;;
5295;SDS011;2670;42.720;23.336;2023-07-24T12:10:05;10.20;;;7.50;;
5295;SDS011;2670;42.720;23.336;2023-07-24T12:12:36;14.67;;;7.70;;
5295;SDS011;2670;42.720;23.336;2023-07-24T12:15:06;12.03;;;6.90;;
5295;SDS011;2670;42.720;23.336;2023-07-24T12:17:34;14.23;;;8.13;;
5295;SDS011;2670;42.720;23.336;2023-07-24T12:20:00;13.10;;;7.30;;
5295;SDS011;2670;42.720;23.336;2023-07-24T12:22:27;12.37;;;8.13;;
5295;SDS011;2670;42.720;23.336;2023-07-24T12:24:54;17.57;;;8.87;;
5295;SDS011;2670;42.720;23.336;2023-07-24T12:27:21;13.63;;;7.53;;
5295;SDS011;2670;42.720;23.336;2023-07-24T12:29:47;12.63;;;8.40;;
5295;SDS011;2670;42.720;23.336;2023-07-24T12:32:15;15.23;;;7.80;;
5295;SDS011;2670;42.720;23.336;2023-07-24T12:34:43;13.40;;;7.50;;
5295;SDS011;2670;42.720;23.336;2023-07-24T12:37:10;18.00;;;8.23;;
5295;SDS011;2670;42.720;23.336;2023-07-24T12:39:37;11.97;;;7.13;;
5295;SDS011;2670;42.720;23.336;2023-07-24T12:42:04;15.00;;;7.33;;
5295;SDS011;2670;42.720;23.336;2023-07-24T12:44:31;16.63;;;7.63;;
5295;SDS011;2670;42.720;23.336;2023-07-24T12:46:58;17.97;;;7.63;;
5295;SDS011;2670;42.720;23.336;2023-07-24T12:49:26;26.53;;;7.33;;
5295;SDS011;2670;42.720;23.336;2023-07-24T12:51:52;11.27;;;7.03;;
5295;SDS011;2670;42.720;23.336;2023-07-24T12:54:19;11.50;;;7.53;;
5295;SDS011;2670;42.720;23.336;2023-07-24T12:56:47;18.17;;;7.33;;
5295;SDS011;2670;42.720;23.336;2023-07-24T12:59:14;12.47;;;7.90;;
5295;SDS011;2670;42.720;23.336;2023-07-24T13:01:41;19.50;;;7.43;;
5295;SDS011;2670;42.720;23.336;2023-07-24T13:04:08;10.93;;;6.90;;
5295;SDS011;2670;42.720;23.336;2023-07-24T13:06:36;10.37;;;7.40;;
5295;SDS011;2670;42.720;23.336;2023-07-24T13:09:03;20.83;;;7.43;;
5295;SDS011;2670;42.720;23.336;2023-07-24T13:11:30;15.20;;;7.60;;
5295;SDS011;2670;42.720;23.336;2023-07-24T13:13:57;17.30;;;7.83;;
5295;SDS011;2670;42.720;23.336;2023-07-24T13:16:24;10.80;;;7.60;;
5295;SDS011;2670;42.720;23.336;2023-07-24T13:18:50;16.60;;;7.40;;
5295;SDS011;2670;42.720;23.336;2023-07-24T13:21:17;15.57;;;7.00;;
5295;SDS011;2670;42.720;23.336;2023-07-24T13:23:45;11.70;;;7.30;;
5295;SDS011;2670;42.720;23.336;2023-07-24T13:26:12;10.27;;;7.77;;
5295;SDS011;2670;42.720;23.336;2023-07-24T13:28:39;10.67;;;7.93;;
5295;SDS011;2670;42.720;23.336;2023-07-24T13:31:12;12.27;;;7.30;;
5295;SDS011;2670;42.720;23.336;2023-07-24T13:33:40;12.17;;;8.40;;
5295;SDS011;2670;42.720;23.336;2023-07-24T13:36:07;11.00;;;6.67;;
5295;SDS011;2670;42.720;23.336;2023-07-24T13:38:34;14.07;;;8.10;;
5295;SDS011;2670;42.720;23.336;2023-07-24T13:41:03;11.33;;;8.00;;
5295;SDS011;2670;42.720;23.336;2023-07-24T13:43:30;12.20;;;8.17;;
5295;SDS011;2670;42.720;23.336;2023-07-24T13:45:58;12.93;;;7.90;;
5295;SDS011;2670;42.720;23.336;2023-07-24T13:48:24;14.80;;;7.77;;
5295;SDS011;2670;42.720;23.336;2023-07-24T13:50:53;13.67;;;7.63;;
5295;SDS011;2670;42.720;23.336;2023-07-24T13:53:20;17.50;;;8.07;;
5295;SDS011;2670;42.720;23.336;2023-07-24T13:55:47;17.50;;;7.33;;
5295;SDS011;2670;42.720;23.336;2023-07-24T13:58:15;11.80;;;8.20;;
5295;SDS011;2670;42.720;23.336;2023-07-24T14:00:42;12.90;;;8.00;;
5295;SDS011;2670;42.720;23.336;2023-07-24T14:03:08;12.37;;;7.73;;
5295;SDS011;2670;42.720;23.336;2023-07-24T14:05:35;15.07;;;9.00;;
5295;SDS011;2670;42.720;23.336;2023-07-24T14:08:02;11.17;;;7.23;;
5295;SDS011;2670;42.720;23.336;2023-07-24T14:10:30;9.67;;;7.30;;
5295;SDS011;2670;42.720;23.336;2023-07-24T14:12:57;14.47;;;7.97;;
5295;SDS011;2670;42.720;23.336;2023-07-24T14:15:25;14.10;;;7.83;;
5295;SDS011;2670;42.720;23.336;2023-07-24T14:17:51;19.00;;;8.33;;
5295;SDS011;2670;42.720;23.336;2023-07-24T14:20:18;12.63;;;6.90;;
5295;SDS011;2670;42.720;23.336;2023-07-24T14:22:45;10.97;;;7.70;;
5295;SDS011;2670;42.720;23.336;2023-07-24T14:25:12;14.13;;;8.13;;
5295;SDS011;2670;42.720;23.336;2023-07-24T14:27:38;15.50;;;8.43;;
5295;SDS011;2670;42.720;23.336;2023-07-24T14:30:08;10.60;;;7.60;;
5295;SDS011;2670;42.720;23.336;2023-07-24T14:32:38;13.57;;;8.63;;
5295;SDS011;2670;42.720;23.336;2023-07-24T14:35:05;12.87;;;7.77;;
5295;SDS011;2670;42.720;23.336;2023-07-24T14:37:33;15.60;;;8.10;;
5295;SDS011;2670;42.720;23.336;2023-07-24T14:40:00;12.47;;;8.00;;
5295;SDS011;2670;42.720;23.336;2023-07-24T14:42:27;11.93;;;8.00;;
5295;SDS011;2670;42.720;23.336;2023-07-24T14:44:55;11.23;;;6.90;;
5295;SDS011;2670;42.720;23.336;2023-07-24T14:47:26;11.77;;;8.13;;
5295;SDS011;2670;42.720;23.336;2023-07-24T14:49:56;13.30;;;8.10;;
5295;SDS011;2670;42.720;23.336;2023-07-24T14:52:24;11.97;;;7.80;;